Decoded Metar for KUTS (HUNTSVILLE in TX, USA) (IATA:UTS) | Meteo·Mobile Aviation Weather
aviador You're here:

KUTS Decoded Metar

HUNTSVILLE in TX, USA
Report Time2019-04-19 10:53:00
UTC Time2019-04-19 11:36:14
Flight Rules vfr VFR
Wind300° at 06 kt
W.Decomp.*RWY 36: 2.4 kt HW 5.5 kt LCW
Visibility9999 m
Phenomena:N/A
Clouds:N/A
Expected CloudBase > 1,600 ft AGL from Temp-Dew spread
CeilingNone
Temp12°C (ISA -2)
Dew Point08°C (77% RH)
AAT9.4°C
QNH1014 hPa
Density Alt177 ft
Elevation341 ft
Report Wrong Elevation
Raw Report
KUTS 191053Z AUTO 30006KT 10SM CLR 12/08 A2994 RMK AO2 SLP134
T01220078=

Extra information for KUTS:More info

Metar Taf Metar & Taf Last 4 Metars F.Rules Stats Wind Profile Meteogram Temp Stats Airport Information Weather charts Add Link Nearby VenuesMetar ALERT Operation Metar Decoded Social comments

AIRNAV info for KUTS